Time;durP1;ratioP1;P1;durP2;ratioP2;P2;SDS_P1;SDS_P2;PMS_P1;PMS_P2;Temp;Humidity;BMP_temperature;BMP_pressure;BME280_temperature;BME280_humidity;BME280_pressure;Samples;Min_cycle;Max_cycle;Signal;HPM_P1;HPM_P2
2021/12/25 00:00:00;;;;;;;25.98;13.48;;;10.80;94.30;;;;;;4937158;29;20038;-76
2021/12/25 00:02:27;;;;;;;26.58;14.73;;;10.90;94.30;;;;;;4936856;29;20028;-71
2021/12/25 00:04:53;;;;;;;18.92;8.32;;;10.90;94.00;;;;;;4936706;29;20114;-76
2021/12/25 00:07:19;;;;;;;9.77;3.97;;;11.00;94.00;;;;;;4936827;29;20110;-77
2021/12/25 00:09:45;;;;;;;9.00;3.75;;;11.20;92.70;;;;;;4939141;29;20462;-74
2021/12/25 00:12:11;;;;;;;14.65;3.22;;;11.20;99.90;;;;;;4941491;29;20031;-74
2021/12/25 00:14:37;;;;;;;10.70;3.97;;;11.20;99.90;;;;;;4946633;29;20087;-77
2021/12/25 00:17:03;;;;;;;8.48;3.65;;;11.20;99.90;;;;;;4949830;29;20027;-73
2021/12/25 00:19:29;;;;;;;9.93;4.03;;;11.30;99.90;;;;;;4945211;29;20091;-72
2021/12/25 00:21:56;;;;;;;6.93;3.42;;;11.40;99.90;;;;;;4941078;29;20103;-73
2021/12/25 00:24:22;;;;;;;15.65;6.38;;;11.40;99.90;;;;;;4939791;29;20043;-76
2021/12/25 00:27:22;;;;;;;11.52;5.80;;;11.40;99.90;;;;;;4939458;29;20131;-77
2021/12/25 00:29:54;;;;;;;22.70;12.05;;;11.40;99.90;;;;;;4941410;29;20103;-76
2021/12/25 00:34:49;;;;;;;52.95;30.95;;;11.20;99.90;;;;;;4930029;29;20027;-77
2021/12/25 00:37:16;;;;;;;69.10;44.78;;;11.00;99.90;;;;;;4938430;29;20036;-73
2021/12/25 00:39:43;;;;;;;49.67;32.40;;;10.80;99.90;;;;;;4940946;29;20087;-75
2021/12/25 00:42:10;;;;;;;45.75;25.40;;;10.70;99.90;;;;;;4947088;29;20066;-77
2021/12/25 00:44:37;;;;;;;40.65;24.05;;;10.50;99.90;;;;;;4941216;29;20020;-75
2021/12/25 00:47:04;;;;;;;28.38;17.05;;;10.20;99.90;;;;;;4939566;29;20043;-76
2021/12/25 00:49:31;;;;;;;28.27;14.07;;;10.10;99.90;;;;;;4907038;29;20043;-76
2021/12/25 00:51:57;;;;;;;31.20;18.00;;;10.00;99.90;;;;;;4947115;29;20023;-77
2021/12/25 00:54:25;;;;;;;38.40;24.95;;;9.90;99.90;;;;;;4940692;29;20027;-76
2021/12/25 00:56:52;;;;;;;27.92;17.08;;;9.90;99.90;;;;;;4955149;28;20031;-71
2021/12/25 00:59:18;;;;;;;30.33;17.85;;;9.90;99.90;;;;;;4971604;28;20024;-76
2021/12/25 01:01:44;;;;;;;34.25;22.27;;;9.90;99.90;;;;;;4955038;29;20124;-77
2021/12/25 01:04:10;;;;;;;40.70;21.88;;;9.90;99.90;;;;;;4954246;28;20524;-77
2021/12/25 01:06:39;;;;;;;34.58;18.90;;;9.90;99.90;;;;;;4954077;28;20054;-77
2021/12/25 01:09:07;;;;;;;29.60;16.65;;;9.90;99.90;;;;;;4953867;29;20143;-77
2021/12/25 01:11:35;;;;;;;32.03;21.20;;;9.90;99.90;;;;;;4955018;29;20079;-77
2021/12/25 01:14:12;;;;;;;50.50;29.15;;;9.90;99.90;;;;;;4937928;29;20065;-76
2021/12/25 01:30:34;;;;;;;22.63;13.05;;;9.60;99.90;;;;;;4960673;28;20078;-74
2021/12/25 01:42:05;;;;;;;27.23;13.73;;;9.50;99.90;;;;;;4976206;28;20085;-76
2021/12/25 01:48:01;;;;;;;30.70;15.07;;;9.50;99.90;;;;;;4971580;28;20046;-69
2021/12/25 01:50:30;;;;;;;30.75;16.02;;;9.60;99.90;;;;;;4971269;28;20031;-76
2021/12/25 01:52:57;;;;;;;31.42;17.23;;;9.60;99.90;;;;;;4967553;28;20114;-77
2021/12/25 01:55:28;;;;;;;29.77;16.75;;;9.60;99.90;;;;;;4952970;29;20031;-76
2021/12/25 01:57:57;;;;;;;30.55;16.20;;;9.70;99.90;;;;;;4936958;29;20027;-75
2021/12/25 02:00:33;;;;;;;40.78;22.10;;;9.80;99.90;;;;;;4937171;28;20027;-76
2021/12/25 02:03:01;;;;;;;35.85;18.65;;;9.80;99.90;;;;;;4937474;29;20047;-77
2021/12/25 02:05:28;;;;;;;36.92;19.48;;;9.80;99.90;;;;;;4954122;29;20406;-77
2021/12/25 02:07:53;;;;;;;29.17;16.67;;;9.90;99.90;;;;;;4953158;29;20040;-76
2021/12/25 02:10:20;;;;;;;31.45;17.75;;;9.90;99.90;;;;;;4952857;28;20557;-77
2021/12/25 02:12:49;;;;;;;30.35;18.20;;;9.90;99.90;;;;;;4921416;29;20030;-77
2021/12/25 02:15:20;;;;;;;28.83;15.80;;;10.00;99.90;;;;;;4937359;28;20050;-77
2021/12/25 02:20:57;;;;;;;23.80;14.23;;;10.20;99.90;;;;;;4954539;29;20497;-77
2021/12/25 02:23:24;;;;;;;29.92;16.35;;;10.30;99.90;;;;;;4953976;29;20042;-75
2021/12/25 02:25:54;;;;;;;36.70;20.92;;;10.30;99.90;;;;;;4954155;29;20495;-76
2021/12/25 02:28:21;;;;;;;33.67;18.48;;;10.40;99.90;;;;;;4936369;29;20066;-77
2021/12/25 02:30:49;;;;;;;33.67;19.02;;;10.50;99.90;;;;;;4953836;28;20027;-75
2021/12/25 02:33:18;;;;;;;31.75;18.05;;;10.50;99.90;;;;;;4957644;29;20394;-76
2021/12/25 02:35:45;;;;;;;31.10;18.15;;;10.60;99.90;;;;;;4955400;29;20108;-74
2021/12/25 02:38:12;;;;;;;33.08;17.55;;;10.60;99.90;;;;;;4953803;29;20075;-72
2021/12/25 02:40:38;;;;;;;42.97;23.90;;;10.60;99.90;;;;;;4953252;29;20031;-76
2021/12/25 02:43:04;;;;;;;50.75;25.70;;;10.60;99.90;;;;;;4936945;29;20118;-77
2021/12/25 02:45:30;;;;;;;50.80;28.92;;;10.60;99.90;;;;;;4952745;28;20031;-75
2021/12/25 02:47:57;;;;;;;57.63;30.65;;;10.60;99.90;;;;;;4954446;28;20062;-77
2021/12/25 02:50:30;;;;;;;42.83;26.00;;;10.60;99.90;;;;;;4956030;29;20493;-77
2021/12/25 02:52:59;;;;;;;53.05;29.70;;;10.60;99.90;;;;;;4940420;29;20038;-76
2021/12/25 02:55:26;;;;;;;50.70;29.95;;;10.50;99.90;;;;;;4940209;28;20066;-77
2021/12/25 02:57:52;;;;;;;45.88;28.85;;;10.50;99.90;;;;;;4955836;28;20023;-76
2021/12/25 03:00:24;;;;;;;42.70;25.95;;;10.50;99.90;;;;;;4940165;29;20086;-76
2021/12/25 03:02:51;;;;;;;42.13;25.65;;;10.50;99.90;;;;;;4956415;28;20039;-76
2021/12/25 03:05:17;;;;;;;37.08;21.55;;;10.50;99.90;;;;;;4955601;28;20555;-70
2021/12/25 03:07:44;;;;;;;35.17;22.17;;;10.50;99.90;;;;;;4940305;29;20050;-76
2021/12/25 03:10:13;;;;;;;40.50;23.83;;;10.50;99.90;;;;;;4959603;29;20039;-75
2021/12/25 03:15:47;;;;;;;38.33;25.48;;;10.50;99.90;;;;;;4935750;29;20059;-72
2021/12/25 03:18:17;;;;;;;;;;;10.50;99.90;;;;;;4935379;29;20047;-70
2021/12/25 03:20:46;;;;;;;44.38;27.08;;;10.40;99.90;;;;;;4935520;29;19911;-70
2021/12/25 03:23:20;;;;;;;45.42;26.65;;;10.40;99.90;;;;;;4919733;29;20055;-75
2021/12/25 03:25:48;;;;;;;42.45;25.85;;;10.40;99.90;;;;;;4936085;29;20067;-75
2021/12/25 03:28:16;;;;;;;46.60;24.83;;;10.30;99.90;;;;;;4924740;29;20058;-74
2021/12/25 03:30:43;;;;;;;32.55;18.23;;;10.30;99.90;;;;;;4927138;29;20047;-74
2021/12/25 03:33:13;;;;;;;33.53;18.73;;;10.30;99.90;;;;;;4949661;28;20079;-76
2021/12/25 03:35:39;;;;;;;31.35;20.20;;;10.30;99.90;;;;;;4950066;29;20035;-75
2021/12/25 03:38:08;;;;;;;30.60;19.27;;;10.30;99.90;;;;;;4949665;29;20042;-71
2021/12/25 03:40:35;;;;;;;27.27;17.08;;;10.30;99.90;;;;;;4934535;29;20039;-74
2021/12/25 03:43:02;;;;;;;26.60;14.48;;;10.30;99.90;;;;;;4947496;29;20048;-75
2021/12/25 03:45:30;;;;;;;25.42;13.07;;;10.30;99.90;;;;;;4946508;29;20421;-76
2021/12/25 03:48:13;;;;;;;28.15;13.80;;;10.30;99.90;;;;;;4944552;29;20091;-74
2021/12/25 03:58:36;;;;;;;21.05;11.23;;;10.30;99.90;;;;;;4939343;28;20045;-76
2021/12/25 04:01:23;;;;;;;21.30;11.00;;;10.30;99.90;;;;;;4944124;29;20027;-70
2021/12/25 04:04:17;;;;;;;16.58;10.07;;;10.30;99.90;;;;;;4940917;29;20114;-70
2021/12/25 04:06:47;;;;;;;22.15;11.90;;;10.30;99.90;;;;;;4960670;29;20047;-70
2021/12/25 04:09:23;;;;;;;21.92;12.65;;;10.30;99.90;;;;;;4967245;28;20110;-75
2021/12/25 04:11:49;;;;;;;23.60;11.65;;;10.30;99.90;;;;;;4964416;29;20031;-70
2021/12/25 04:14:16;;;;;;;22.95;10.73;;;10.30;99.90;;;;;;4955849;28;20035;-75
2021/12/25 04:16:42;;;;;;;21.23;10.25;;;10.30;99.90;;;;;;4955939;29;20023;-75
2021/12/25 04:19:09;;;;;;;20.80;11.00;;;10.30;99.90;;;;;;4959568;29;20037;-74
2021/12/25 04:21:36;;;;;;;24.05;11.05;;;10.30;99.90;;;;;;4944186;29;20034;-74
2021/12/25 04:24:03;;;;;;;20.23;11.73;;;10.30;99.90;;;;;;4957585;29;20446;-70
2021/12/25 04:26:29;;;;;;;18.85;9.20;;;10.30;99.90;;;;;;4955407;29;20050;-73
2021/12/25 05:04:06;;;;;;;18.15;10.07;;;10.30;99.90;;;;;;4963121;29;20489;-75
2021/12/25 05:06:47;;;;;;;25.10;10.13;;;10.30;99.90;;;;;;4957771;29;20055;-75
2021/12/25 05:09:13;;;;;;;16.75;9.10;;;10.30;99.90;;;;;;4953285;29;20047;-76
2021/12/25 05:11:39;;;;;;;18.02;8.77;;;10.30;99.90;;;;;;4936217;29;20382;-76
2021/12/25 05:14:05;;;;;;;18.77;10.02;;;10.30;99.90;;;;;;4953378;28;20238;-76
2021/12/25 05:16:37;;;;;;;18.57;9.20;;;10.30;99.90;;;;;;4937578;29;20410;-76
2021/12/25 05:19:03;;;;;;;15.00;7.53;;;10.30;99.90;;;;;;4955492;29;20131;-70
2021/12/25 05:21:30;;;;;;;17.40;9.23;;;10.30;99.90;;;;;;4954578;28;20463;-70
2021/12/25 05:23:58;;;;;;;17.85;8.70;;;10.30;99.90;;;;;;4927225;29;20039;-76
2021/12/25 05:26:25;;;;;;;21.27;11.60;;;10.40;99.90;;;;;;4959984;29;20110;-73
2021/12/25 05:29:00;;;;;;;18.20;11.27;;;10.40;99.90;;;;;;4955454;28;20039;-76
2021/12/25 05:31:34;;;;;;;18.02;10.18;;;10.40;99.90;;;;;;4955874;29;20125;-73
2021/12/25 05:34:16;;;;;;;17.30;8.93;;;10.40;99.90;;;;;;4953201;29;20057;-77
2021/12/25 05:36:54;;;;;;;23.63;12.70;;;10.30;99.90;;;;;;4954330;29;20032;-72
2021/12/25 05:39:43;;;;;;;26.63;13.88;;;10.30;99.90;;;;;;4933050;29;20039;-75
2021/12/25 05:42:09;;;;;;;28.58;15.60;;;10.30;99.90;;;;;;4933675;29;20046;-71
2021/12/25 05:44:35;;;;;;;27.98;15.75;;;10.30;99.90;;;;;;4932970;28;20118;-76
2021/12/25 05:47:12;;;;;;;32.22;16.63;;;10.40;99.90;;;;;;4933174;29;20039;-71
2021/12/25 05:49:44;;;;;;;25.77;15.32;;;10.40;99.90;;;;;;4933122;29;20078;-74
2021/12/25 05:52:15;;;;;;;24.38;13.63;;;10.40;99.90;;;;;;4932709;29;20031;-76
2021/12/25 05:55:04;;;;;;;25.77;13.50;;;10.50;99.90;;;;;;4932963;29;20039;-77
2021/12/25 05:57:40;;;;;;;25.65;13.27;;;10.50;99.90;;;;;;4916833;29;20040;-77
2021/12/25 06:00:32;;;;;;;17.25;9.50;;;10.50;99.90;;;;;;4917061;29;20561;-77
2021/12/25 06:02:58;;;;;;;21.05;11.63;;;10.50;99.90;;;;;;4917402;29;20032;-72
2021/12/25 06:05:30;;;;;;;21.83;11.52;;;10.50;99.90;;;;;;4917527;29;20055;-77
2021/12/25 06:07:57;;;;;;;23.52;12.35;;;10.60;99.90;;;;;;4933091;29;20378;-70
2021/12/25 06:10:23;;;;;;;23.13;11.63;;;10.60;99.90;;;;;;4932815;29;20048;-77
2021/12/25 06:12:54;;;;;;;21.25;11.82;;;10.50;99.90;;;;;;4916086;29;20035;-77
2021/12/25 06:15:22;;;;;;;20.30;11.90;;;10.50;99.90;;;;;;4916207;29;20036;-73
2021/12/25 06:17:57;;;;;;;21.08;10.40;;;10.50;99.90;;;;;;4895929;29;20626;-77
2021/12/25 06:20:28;;;;;;;17.70;10.00;;;10.50;99.90;;;;;;4890525;29;20606;-72
2021/12/25 06:23:18;;;;;;;20.13;9.85;;;10.60;99.90;;;;;;4894063;29;20024;-73
2021/12/25 06:26:12;;;;;;;19.17;9.27;;;10.60;99.90;;;;;;4896513;29;20051;-77
2021/12/25 06:29:08;;;;;;;18.50;9.43;;;10.60;99.90;;;;;;4953974;28;20097;-77
2021/12/25 06:31:54;;;;;;;17.77;9.85;;;10.60;99.90;;;;;;4948658;28;20038;-77
2021/12/25 06:34:40;;;;;;;20.13;10.48;;;10.60;99.90;;;;;;4973698;28;20078;-77
2021/12/25 06:37:31;;;;;;;20.73;10.63;;;10.60;99.90;;;;;;4970521;28;20081;-72
2021/12/25 06:40:26;;;;;;;20.90;10.63;;;10.60;99.90;;;;;;4944991;28;20069;-78
2021/12/25 06:42:58;;;;;;;18.85;10.75;;;10.60;99.90;;;;;;4953397;29;20071;-78
2021/12/25 06:45:25;;;;;;;18.05;9.95;;;10.60;99.90;;;;;;4958174;29;20496;-75
2021/12/25 06:47:51;;;;;;;18.75;9.90;;;10.60;99.90;;;;;;4954601;29;20130;-72
2021/12/25 06:50:43;;;;;;;25.33;15.02;;;10.50;99.90;;;;;;4954751;29;20127;-71
2021/12/25 06:53:29;;;;;;;31.77;18.85;;;10.60;99.90;;;;;;4955142;29;20057;-69
2021/12/25 06:56:09;;;;;;;59.15;36.33;;;10.60;99.90;;;;;;4956743;29;20094;-71
2021/12/25 06:58:44;;;;;;;43.35;28.58;;;10.50;99.90;;;;;;4972298;28;20042;-75
2021/12/25 07:01:11;;;;;;;41.83;25.65;;;10.50;99.90;;;;;;4974653;28;20033;-75
2021/12/25 07:03:36;;;;;;;48.88;26.27;;;10.40;99.90;;;;;;4963013;28;20031;-71
2021/12/25 07:06:41;;;;;;;27.02;16.08;;;10.30;99.90;;;;;;4931254;29;20139;-71
2021/12/25 07:09:25;;;;;;;26.85;15.82;;;10.20;99.90;;;;;;4926244;29;20055;-73
2021/12/25 07:12:19;;;;;;;44.30;26.83;;;10.10;99.90;;;;;;4909115;29;20048;-74
2021/12/25 07:15:23;;;;;;;48.97;24.60;;;10.10;99.90;;;;;;4920390;29;20164;-76
2021/12/25 07:18:21;;;;;;;47.25;27.30;;;10.00;99.90;;;;;;4918038;29;20478;-70
2021/12/25 07:21:08;;;;;;;32.17;18.13;;;10.00;99.90;;;;;;4917435;29;20067;-76
2021/12/25 07:24:06;;;;;;;52.95;36.20;;;10.00;99.90;;;;;;4922602;29;20143;-75
2021/12/25 07:26:41;;;;;;;26.08;14.38;;;9.90;99.90;;;;;;4918530;29;20039;-73
2021/12/25 07:29:12;;;;;;;42.95;26.85;;;9.80;99.90;;;;;;4899472;29;20087;-75
2021/12/25 07:31:39;;;;;;;29.20;15.95;;;9.80;99.90;;;;;;4915222;29;20064;-76
2021/12/25 07:34:05;;;;;;;32.10;15.15;;;9.80;99.90;;;;;;4914182;29;20557;-73
2021/12/25 07:36:30;;;;;;;31.17;15.70;;;9.90;99.90;;;;;;4917572;29;20063;-70
2021/12/25 07:38:57;;;;;;;25.20;14.55;;;9.90;99.90;;;;;;4934330;29;20067;-70
2021/12/25 07:41:23;;;;;;;41.28;23.30;;;9.90;99.90;;;;;;4934400;29;20460;-70
2021/12/25 07:43:49;;;;;;;30.33;19.33;;;9.90;99.90;;;;;;4934219;29;20438;-71
2021/12/25 07:46:23;;;;;;;37.08;20.92;;;10.00;99.90;;;;;;4934578;29;20032;-70
2021/12/25 07:48:49;;;;;;;54.05;37.35;;;10.00;99.90;;;;;;4934282;29;20067;-75
2021/12/25 07:51:15;;;;;;;70.10;44.13;;;10.10;99.90;;;;;;4933986;29;20393;-73
2021/12/25 07:53:44;;;;;;;64.53;42.42;;;10.10;99.90;;;;;;4942395;28;20059;-73
2021/12/25 07:56:11;;;;;;;72.90;45.45;;;10.20;99.90;;;;;;4955695;29;20015;-73
2021/12/25 07:58:37;;;;;;;69.50;48.45;;;10.30;99.90;;;;;;4955144;29;20470;-71
2021/12/25 08:01:03;;;;;;;70.97;48.08;;;10.30;99.90;;;;;;4956129;29;20070;-72
2021/12/25 08:03:30;;;;;;;45.97;32.35;;;10.50;99.90;;;;;;4955226;29;20031;-75
2021/12/25 08:05:56;;;;;;;25.45;15.48;;;10.60;99.90;;;;;;4952863;29;20059;-77
2021/12/25 08:08:22;;;;;;;23.42;13.90;;;10.70;99.90;;;;;;4954026;29;20082;-77
2021/12/25 08:10:49;;;;;;;28.05;17.33;;;10.70;99.90;;;;;;4954823;29;20035;-72
2021/12/25 08:13:16;;;;;;;40.60;30.75;;;10.80;99.90;;;;;;4937527;29;20066;-75
2021/12/25 08:15:43;;;;;;;40.35;26.08;;;10.80;99.90;;;;;;4953584;29;20023;-71
2021/12/25 08:18:10;;;;;;;66.13;43.63;;;10.90;99.90;;;;;;4954709;29;20555;-76
2021/12/25 08:20:54;;;;;;;106.32;56.22;;;10.90;99.90;;;;;;4955682;29;20046;-72
2021/12/25 08:23:39;;;;;;;107.82;54.58;;;11.00;99.90;;;;;;4955150;29;20055;-74
2021/12/25 08:26:26;;;;;;;69.20;37.92;;;11.10;99.90;;;;;;4955140;29;20572;-74
2021/12/25 08:29:12;;;;;;;78.97;41.22;;;11.10;99.90;;;;;;4954581;29;20130;-74
2021/12/25 08:32:00;;;;;;;138.88;74.32;;;11.20;99.90;;;;;;4945219;28;20510;-74
2021/12/25 08:34:47;;;;;;;117.88;65.18;;;11.30;99.90;;;;;;4914102;29;20047;-73
2021/12/25 08:37:24;;;;;;;101.43;63.55;;;11.40;99.90;;;;;;4914323;29;20639;-74
2021/12/25 08:39:52;;;;;;;112.95;63.80;;;11.50;99.90;;;;;;4914219;29;20048;-73
2021/12/25 08:42:18;;;;;;;91.35;51.17;;;11.60;99.90;;;;;;4914039;29;20047;-70
2021/12/25 08:47:28;;;;;;;64.37;35.07;;;11.70;99.90;;;;;;4913527;29;20039;-73
2021/12/25 08:49:55;;;;;;;77.22;43.67;;;11.70;99.90;;;;;;4913624;29;20123;-72
2021/12/25 08:52:23;;;;;;;55.65;36.60;;;11.80;99.90;;;;;;4931752;29;20040;-73
2021/12/25 08:54:49;;;;;;;48.97;31.33;;;11.80;99.90;;;;;;4933140;29;20471;-74
2021/12/25 08:57:17;;;;;;;49.28;32.95;;;11.90;99.90;;;;;;4918514;29;20067;-76
2021/12/25 08:59:43;;;;;;;49.90;32.35;;;11.90;99.90;;;;;;4913365;29;20047;-75
2021/12/25 09:02:13;;;;;;;69.30;40.67;;;11.90;99.90;;;;;;4897654;29;20075;-77
2021/12/25 09:04:42;;;;;;;62.22;41.15;;;12.00;99.90;;;;;;4913106;29;20040;-75
2021/12/25 09:07:09;;;;;;;82.72;51.67;;;12.00;99.90;;;;;;4922266;29;20144;-74
2021/12/25 09:09:35;;;;;;;80.22;47.33;;;12.10;99.90;;;;;;4919061;29;20087;-76
2021/12/25 09:12:01;;;;;;;44.30;32.00;;;12.10;99.90;;;;;;4925589;29;20035;-77
2021/12/25 09:14:28;;;;;;;38.28;21.98;;;12.10;99.90;;;;;;4918276;29;20031;-74
2021/12/25 09:16:54;;;;;;;34.83;20.73;;;11.90;99.90;;;;;;4933160;29;20048;-77
2021/12/25 09:19:21;;;;;;;40.22;26.00;;;11.80;99.90;;;;;;4950136;29;20031;-74
2021/12/25 09:21:47;;;;;;;42.40;27.52;;;11.80;99.90;;;;;;4926491;29;20027;-76
2021/12/25 09:24:15;;;;;;;40.22;22.63;;;11.80;99.90;;;;;;4940030;29;20028;-75
2021/12/25 09:26:41;;;;;;;41.90;24.55;;;11.80;99.90;;;;;;4941223;29;20062;-73
2021/12/25 09:29:08;;;;;;;49.45;27.85;;;11.70;99.90;;;;;;4942505;29;20042;-76
2021/12/25 09:31:34;;;;;;;75.05;45.03;;;11.70;99.90;;;;;;4941076;29;20062;-76
2021/12/25 09:34:00;;;;;;;84.47;55.90;;;11.70;99.90;;;;;;4948553;29;20031;-75
2021/12/25 09:36:27;;;;;;;79.53;54.60;;;11.70;99.90;;;;;;4951538;29;20027;-72
2021/12/25 09:38:53;;;;;;;59.38;35.45;;;11.80;99.90;;;;;;4951210;29;20042;-71
2021/12/25 09:41:19;;;;;;;47.03;31.80;;;11.80;99.90;;;;;;4951792;29;20019;-77
2021/12/25 09:43:48;;;;;;;43.15;26.60;;;11.80;99.90;;;;;;4951788;29;20027;-73
2021/12/25 09:46:17;;;;;;;35.55;23.63;;;11.90;99.90;;;;;;4951855;29;20129;-75
2021/12/25 09:48:45;;;;;;;42.92;28.08;;;11.90;99.90;;;;;;4951733;29;20050;-73
2021/12/25 09:51:11;;;;;;;44.00;30.38;;;12.00;99.90;;;;;;4952137;28;20033;-76
2021/12/25 09:53:37;;;;;;;46.40;30.88;;;12.10;99.90;;;;;;4952134;29;20382;-77
2021/12/25 09:56:04;;;;;;;49.60;34.67;;;12.20;99.90;;;;;;4935009;29;20020;-77
2021/12/25 09:58:31;;;;;;;46.00;33.10;;;12.40;99.90;;;;;;4957240;28;20031;-69
2021/12/25 10:00:58;;;;;;;48.40;35.05;;;12.40;99.90;;;;;;4959436;28;20473;-76
2021/12/25 10:03:39;;;;;;;59.00;39.28;;;12.50;99.90;;;;;;4959892;28;20474;-77
2021/12/25 10:06:05;;;;;;;66.97;44.70;;;12.50;99.90;;;;;;4959557;28;20047;-71
2021/12/25 10:08:31;;;;;;;64.07;43.83;;;12.60;99.90;;;;;;4959503;28;20031;-75
2021/12/25 10:11:01;;;;;;;70.40;45.53;;;12.60;99.90;;;;;;4959196;29;20086;-74
2021/12/25 10:13:28;;;;;;;64.82;45.42;;;12.60;99.90;;;;;;4960109;28;20027;-77
2021/12/25 10:16:01;;;;;;;84.43;56.25;;;12.60;99.90;;;;;;4959145;29;20106;-76
2021/12/25 10:18:33;;;;;;;110.47;71.88;;;12.70;99.90;;;;;;4959020;28;20639;-77
2021/12/25 10:21:18;;;;;;;129.63;87.90;;;12.70;99.90;;;;;;4942772;29;20040;-77
2021/12/25 10:23:44;;;;;;;122.47;84.78;;;12.80;99.90;;;;;;4959678;29;20035;-74
2021/12/25 10:26:10;;;;;;;130.43;87.72;;;12.90;99.90;;;;;;4959863;29;20030;-77
2021/12/25 10:28:40;;;;;;;113.40;77.90;;;13.10;99.90;;;;;;4959420;28;20043;-75
2021/12/25 10:31:16;;;;;;;106.03;72.88;;;13.10;99.90;;;;;;4959298;29;20382;-76
2021/12/25 10:33:50;;;;;;;126.15;83.32;;;13.30;99.90;;;;;;4959907;29;20027;-77
2021/12/25 10:36:25;;;;;;;132.07;90.38;;;13.40;99.90;;;;;;4959458;29;20027;-72
2021/12/25 10:38:58;;;;;;;128.05;87.90;;;13.40;99.90;;;;;;4959785;28;20110;-69
2021/12/25 10:41:25;;;;;;;87.22;64.10;;;13.50;99.90;;;;;;4959634;28;20114;-73
2021/12/25 10:44:08;;;;;;;56.65;39.03;;;13.60;99.90;;;;;;4959448;29;20065;-73
2021/12/25 10:46:58;;;;;;;38.20;23.73;;;13.80;99.90;;;;;;4959278;28;20035;-68
2021/12/25 10:49:27;;;;;;;24.35;12.30;;;13.90;99.90;;;;;;4942448;29;20093;-70
2021/12/25 10:51:54;;;;;;;16.67;9.23;;;14.00;99.90;;;;;;4959605;29;20114;-72
2021/12/25 10:54:38;;;;;;;11.10;6.35;;;14.00;99.90;;;;;;4959381;29;20518;-69
2021/12/25 10:57:05;;;;;;;12.10;5.82;;;14.10;99.90;;;;;;4959250;29;20023;-73
2021/12/25 10:59:48;;;;;;;11.32;4.65;;;14.20;99.90;;;;;;4959246;28;20035;-73
2021/12/25 11:02:32;;;;;;;10.88;4.97;;;14.30;99.90;;;;;;4959564;29;20023;-74
2021/12/25 11:04:59;;;;;;;7.95;4.55;;;14.30;99.90;;;;;;4959384;28;20035;-72
2021/12/25 11:07:25;;;;;;;9.13;4.07;;;14.30;99.90;;;;;;4959849;29;20035;-71
2021/12/25 11:10:08;;;;;;;9.15;4.93;;;14.20;99.90;;;;;;4957274;28;20035;-71
2021/12/25 11:12:34;;;;;;;11.45;5.80;;;14.10;99.90;;;;;;4956885;29;20035;-73
2021/12/25 11:15:22;;;;;;;9.85;5.75;;;14.10;99.90;;;;;;4956906;29;20027;-73
2021/12/25 11:17:54;;;;;;;14.00;6.10;;;14.10;99.90;;;;;;4956707;28;20046;-69
2021/12/25 11:20:35;;;;;;;18.98;7.00;;;14.00;99.90;;;;;;4956688;29;20360;-73
2021/12/25 11:23:06;;;;;;;18.17;7.30;;;14.10;99.90;;;;;;4956652;29;20039;-72
2021/12/25 11:25:33;;;;;;;12.57;7.38;;;14.00;99.90;;;;;;4956418;29;20035;-75
2021/12/25 11:28:01;;;;;;;20.48;9.88;;;14.00;99.90;;;;;;4938689;29;20034;-74
2021/12/25 11:30:31;;;;;;;16.80;9.63;;;14.00;99.90;;;;;;4956213;29;20043;-71
2021/12/25 11:32:58;;;;;;;9.65;5.38;;;14.00;99.90;;;;;;4956401;29;20039;-75
2021/12/25 11:35:24;;;;;;;9.68;4.68;;;14.00;99.90;;;;;;4956207;29;20023;-74
2021/12/25 11:37:52;;;;;;;19.20;10.70;;;14.00;99.90;;;;;;4955795;29;20031;-74
2021/12/25 11:40:21;;;;;;;29.13;16.60;;;14.00;99.90;;;;;;4956641;28;20482;-75
2021/12/25 11:42:49;;;;;;;57.75;29.00;;;14.00;99.90;;;;;;4939098;29;20681;-75
2021/12/25 11:45:18;;;;;;;54.00;28.92;;;13.90;99.90;;;;;;4956205;29;20041;-74
2021/12/25 11:47:53;;;;;;;33.42;18.50;;;13.90;99.90;;;;;;4955813;29;20475;-75
2021/12/25 11:50:22;;;;;;;45.05;24.30;;;13.90;99.90;;;;;;4956020;29;20031;-75
2021/12/25 11:53:28;;;;;;;32.50;18.48;;;13.80;99.90;;;;;;4956475;29;20034;-74
2021/12/25 11:58:49;;;;;;;29.88;16.13;;;13.70;99.90;;;;;;4956061;29;20429;-74
2021/12/25 12:01:30;;;;;;;39.15;23.20;;;13.60;99.90;;;;;;4938972;29;20501;-73
2021/12/25 12:04:03;;;;;;;37.28;22.73;;;13.60;99.90;;;;;;4956183;29;20470;-73
2021/12/25 12:06:44;;;;;;;34.10;19.30;;;13.70;99.90;;;;;;4955866;29;20058;-73
2021/12/25 12:09:19;;;;;;;43.55;24.80;;;13.70;99.90;;;;;;4955524;29;20474;-73
2021/12/25 12:12:04;;;;;;;91.03;46.58;;;13.70;99.90;;;;;;4955286;29;20086;-73
2021/12/25 12:15:16;;;;;;;158.50;81.45;;;13.60;99.90;;;;;;4950719;29;20045;-72
2021/12/25 12:18:26;;;;;;;88.70;51.90;;;13.60;99.90;;;;;;4955887;29;20094;-75
2021/12/25 12:21:04;;;;;;;143.10;86.97;;;13.50;99.90;;;;;;4955019;28;20062;-74
2021/12/25 12:26:34;;;;;;;111.07;73.85;;;13.40;99.90;;;;;;4955319;29;20482;-73
2021/12/25 12:29:00;;;;;;;112.15;78.60;;;13.40;99.90;;;;;;4955386;29;20139;-73
2021/12/25 12:31:46;;;;;;;116.32;81.05;;;13.40;99.90;;;;;;4955250;29;20529;-75
2021/12/25 12:34:33;;;;;;;119.65;75.78;;;13.40;99.90;;;;;;4955236;29;20035;-75
2021/12/25 12:37:14;;;;;;;117.85;73.65;;;13.40;99.90;;;;;;4955259;29;20035;-76
2021/12/25 12:39:44;;;;;;;92.63;64.00;;;13.40;99.90;;;;;;4937942;29;20035;-74
2021/12/25 12:42:13;;;;;;;101.70;66.43;;;13.30;99.90;;;;;;4955180;29;20378;-75
2021/12/25 12:44:39;;;;;;;93.32;60.35;;;13.30;99.90;;;;;;4955464;29;20031;-71
2021/12/25 12:47:12;;;;;;;78.13;50.05;;;13.20;99.90;;;;;;4954747;29;20019;-76
2021/12/25 12:49:50;;;;;;;87.32;59.75;;;13.20;99.90;;;;;;4954924;29;20039;-75
2021/12/25 12:52:29;;;;;;;102.72;70.35;;;13.20;99.90;;;;;;4937799;29;20041;-73
2021/12/25 12:55:01;;;;;;;351.52;192.57;;;13.20;99.90;;;;;;4955127;29;20031;-72
2021/12/25 12:57:33;;;;;;;445.02;250.13;;;13.20;99.90;;;;;;4954748;29;20027;-75
2021/12/25 13:00:13;;;;;;;477.67;284.50;;;13.10;99.90;;;;;;4954721;29;20422;-74
2021/12/25 13:02:45;;;;;;;298.10;181.57;;;13.10;99.90;;;;;;4954617;28;20265;-75
2021/12/25 13:05:12;;;;;;;;;;;13.10;99.90;;;;;;4954665;29;20040;-74
2021/12/25 13:07:42;;;;;;;194.90;110.65;;;13.00;99.90;;;;;;4954855;29;19918;-74
2021/12/25 13:10:24;;;;;;;134.80;81.07;;;13.00;99.90;;;;;;4954418;29;20517;-73
2021/12/25 13:12:51;;;;;;;114.22;71.38;;;12.90;99.90;;;;;;4953289;29;20054;-75
2021/12/25 13:15:25;;;;;;;212.57;125.60;;;12.90;99.90;;;;;;4954197;29;20031;-75
2021/12/25 13:17:57;;;;;;;197.77;115.32;;;12.80;99.90;;;;;;4954470;29;20066;-74
2021/12/25 13:20:47;;;;;;;152.63;93.65;;;12.70;99.90;;;;;;4954325;29;20031;-75
2021/12/25 13:23:20;;;;;;;129.65;78.70;;;12.70;99.90;;;;;;4954117;29;20027;-75
2021/12/25 13:25:51;;;;;;;154.05;90.78;;;12.70;99.90;;;;;;4954391;29;20036;-74
2021/12/25 13:28:19;;;;;;;99.57;59.92;;;12.60;99.90;;;;;;4936703;29;20070;-75
2021/12/25 13:30:51;;;;;;;56.03;32.88;;;12.60;99.90;;;;;;4954418;29;20046;-78
2021/12/25 13:33:21;;;;;;;95.60;58.60;;;12.60;99.90;;;;;;4942899;28;20048;-76
2021/12/25 13:35:48;;;;;;;60.05;35.08;;;12.60;99.90;;;;;;4952695;28;20078;-74
2021/12/25 13:38:15;;;;;;;44.88;29.23;;;12.50;99.90;;;;;;4954106;29;20397;-77
2021/12/25 13:40:48;;;;;;;76.95;47.53;;;12.50;99.90;;;;;;4953891;29;20054;-76
2021/12/25 13:43:15;;;;;;;79.57;48.08;;;12.50;99.90;;;;;;4954249;29;20031;-76
2021/12/25 13:45:41;;;;;;;76.90;53.03;;;12.50;99.90;;;;;;4954373;29;20035;-77
2021/12/25 13:48:08;;;;;;;71.78;47.50;;;12.40;99.90;;;;;;4953766;29;20360;-78
2021/12/25 13:50:35;;;;;;;90.90;57.97;;;12.40;99.90;;;;;;4952177;29;20135;-73
2021/12/25 13:53:06;;;;;;;64.07;42.67;;;12.40;99.90;;;;;;4953519;29;20377;-78
2021/12/25 13:55:35;;;;;;;62.88;39.25;;;12.40;99.90;;;;;;4953556;29;20035;-72
2021/12/25 13:58:05;;;;;;;91.20;54.38;;;12.40;99.90;;;;;;4936734;29;20031;-69
2021/12/25 14:00:33;;;;;;;125.50;82.05;;;12.40;99.90;;;;;;4954048;29;20038;-75
2021/12/25 14:03:11;;;;;;;62.38;39.25;;;12.40;99.90;;;;;;4953879;28;20066;-78
2021/12/25 14:05:40;;;;;;;49.03;27.95;;;12.40;99.90;;;;;;4950096;29;20055;-75
2021/12/25 14:08:07;;;;;;;62.65;35.25;;;12.40;99.90;;;;;;4949693;29;20115;-77
2021/12/25 14:10:36;;;;;;;106.63;65.32;;;12.30;99.90;;;;;;4951228;29;20058;-76
2021/12/25 14:13:05;;;;;;;52.53;33.60;;;12.30;99.90;;;;;;4953668;29;20078;-76
2021/12/25 14:15:35;;;;;;;54.08;31.52;;;12.30;99.90;;;;;;4937075;29;20094;-76
2021/12/25 14:18:04;;;;;;;123.53;68.13;;;12.30;99.90;;;;;;4949860;29;20381;-77